sensor_id;sensor_type;location;lat;lon;timestamp;P1;durP1;ratioP1;P2;durP2;ratioP2
12906;SDS011;6521;50.498;8.474;2024-03-25T00:01:40;18.33;;;3.73;;
12906;SDS011;6521;50.498;8.474;2024-03-25T00:04:12;10.13;;;3.77;;
12906;SDS011;6521;50.498;8.474;2024-03-25T00:06:42;9.33;;;3.77;;
12906;SDS011;6521;50.498;8.474;2024-03-25T00:09:14;10.90;;;3.80;;
12906;SDS011;6521;50.498;8.474;2024-03-25T00:11:47;11.10;;;4.30;;
12906;SDS011;6521;50.498;8.474;2024-03-25T00:14:18;10.67;;;3.67;;
12906;SDS011;6521;50.498;8.474;2024-03-25T00:16:49;9.83;;;3.77;;
12906;SDS011;6521;50.498;8.474;2024-03-25T00:19:23;10.20;;;3.40;;
12906;SDS011;6521;50.498;8.474;2024-03-25T00:21:54;8.40;;;3.83;;
12906;SDS011;6521;50.498;8.474;2024-03-25T00:24:27;9.27;;;3.90;;
12906;SDS011;6521;50.498;8.474;2024-03-25T00:26:59;10.07;;;3.53;;
12906;SDS011;6521;50.498;8.474;2024-03-25T00:29:30;9.73;;;3.90;;
12906;SDS011;6521;50.498;8.474;2024-03-25T00:32:03;14.70;;;3.63;;
12906;SDS011;6521;50.498;8.474;2024-03-25T00:34:34;11.00;;;3.87;;
12906;SDS011;6521;50.498;8.474;2024-03-25T00:37:05;12.53;;;4.03;;
12906;SDS011;6521;50.498;8.474;2024-03-25T00:39:37;15.23;;;3.70;;
12906;SDS011;6521;50.498;8.474;2024-03-25T00:42:15;10.23;;;3.90;;
12906;SDS011;6521;50.498;8.474;2024-03-25T00:44:46;10.03;;;3.97;;
12906;SDS011;6521;50.498;8.474;2024-03-25T00:47:17;11.00;;;3.83;;
12906;SDS011;6521;50.498;8.474;2024-03-25T00:49:50;8.87;;;4.13;;
12906;SDS011;6521;50.498;8.474;2024-03-25T00:52:21;8.00;;;4.10;;
12906;SDS011;6521;50.498;8.474;2024-03-25T00:54:52;17.93;;;4.80;;
12906;SDS011;6521;50.498;8.474;2024-03-25T00:57:25;13.30;;;4.97;;
12906;SDS011;6521;50.498;8.474;2024-03-25T00:59:58;10.80;;;4.07;;
12906;SDS011;6521;50.498;8.474;2024-03-25T01:02:31;17.27;;;4.57;;
12906;SDS011;6521;50.498;8.474;2024-03-25T01:05:04;11.93;;;4.63;;
12906;SDS011;6521;50.498;8.474;2024-03-25T01:07:36;9.13;;;3.83;;
12906;SDS011;6521;50.498;8.474;2024-03-25T01:10:08;9.07;;;3.73;;
12906;SDS011;6521;50.498;8.474;2024-03-25T01:12:39;11.73;;;5.40;;
12906;SDS011;6521;50.498;8.474;2024-03-25T01:15:12;14.80;;;4.20;;
12906;SDS011;6521;50.498;8.474;2024-03-25T01:17:46;14.03;;;4.50;;
12906;SDS011;6521;50.498;8.474;2024-03-25T01:20:17;9.03;;;3.87;;
12906;SDS011;6521;50.498;8.474;2024-03-25T01:22:48;8.43;;;3.50;;
12906;SDS011;6521;50.498;8.474;2024-03-25T01:25:19;13.57;;;3.77;;
12906;SDS011;6521;50.498;8.474;2024-03-25T01:27:50;9.07;;;3.57;;
12906;SDS011;6521;50.498;8.474;2024-03-25T01:30:22;15.40;;;4.63;;
12906;SDS011;6521;50.498;8.474;2024-03-25T01:32:53;14.70;;;4.93;;
12906;SDS011;6521;50.498;8.474;2024-03-25T01:35:24;15.13;;;4.23;;
12906;SDS011;6521;50.498;8.474;2024-03-25T01:38:18;12.20;;;4.23;;
12906;SDS011;6521;50.498;8.474;2024-03-25T01:40:50;11.60;;;3.73;;
12906;SDS011;6521;50.498;8.474;2024-03-25T01:43:23;15.57;;;4.30;;
12906;SDS011;6521;50.498;8.474;2024-03-25T01:45:54;9.57;;;4.30;;
12906;SDS011;6521;50.498;8.474;2024-03-25T01:48:25;13.73;;;3.40;;
12906;SDS011;6521;50.498;8.474;2024-03-25T01:50:56;13.70;;;4.10;;
12906;SDS011;6521;50.498;8.474;2024-03-25T01:53:29;15.33;;;4.43;;
12906;SDS011;6521;50.498;8.474;2024-03-25T01:56:01;13.97;;;4.63;;
12906;SDS011;6521;50.498;8.474;2024-03-25T01:58:36;13.33;;;4.17;;
12906;SDS011;6521;50.498;8.474;2024-03-25T02:01:08;20.27;;;4.40;;
12906;SDS011;6521;50.498;8.474;2024-03-25T02:03:44;17.83;;;5.30;;
12906;SDS011;6521;50.498;8.474;2024-03-25T02:06:15;10.97;;;4.47;;
12906;SDS011;6521;50.498;8.474;2024-03-25T02:08:49;15.93;;;4.30;;
12906;SDS011;6521;50.498;8.474;2024-03-25T02:11:22;15.50;;;4.10;;
12906;SDS011;6521;50.498;8.474;2024-03-25T02:13:54;14.40;;;4.83;;
12906;SDS011;6521;50.498;8.474;2024-03-25T02:16:25;17.03;;;4.33;;
12906;SDS011;6521;50.498;8.474;2024-03-25T02:18:58;12.70;;;4.33;;
12906;SDS011;6521;50.498;8.474;2024-03-25T02:21:32;12.80;;;3.57;;
12906;SDS011;6521;50.498;8.474;2024-03-25T02:24:04;13.77;;;3.90;;
12906;SDS011;6521;50.498;8.474;2024-03-25T02:26:44;12.47;;;3.70;;
12906;SDS011;6521;50.498;8.474;2024-03-25T02:29:15;19.03;;;3.93;;
12906;SDS011;6521;50.498;8.474;2024-03-25T02:31:45;15.73;;;4.57;;
12906;SDS011;6521;50.498;8.474;2024-03-25T02:34:18;15.07;;;3.57;;
12906;SDS011;6521;50.498;8.474;2024-03-25T02:36:49;14.53;;;4.30;;
12906;SDS011;6521;50.498;8.474;2024-03-25T02:39:21;12.83;;;4.27;;
12906;SDS011;6521;50.498;8.474;2024-03-25T02:41:54;19.37;;;4.10;;
12906;SDS011;6521;50.498;8.474;2024-03-25T02:44:26;13.37;;;3.53;;
12906;SDS011;6521;50.498;8.474;2024-03-25T02:47:02;10.57;;;4.23;;
12906;SDS011;6521;50.498;8.474;2024-03-25T02:49:34;17.03;;;3.90;;
12906;SDS011;6521;50.498;8.474;2024-03-25T02:52:06;14.67;;;4.07;;
12906;SDS011;6521;50.498;8.474;2024-03-25T02:54:37;16.27;;;4.33;;
12906;SDS011;6521;50.498;8.474;2024-03-25T02:57:07;13.93;;;4.00;;
12906;SDS011;6521;50.498;8.474;2024-03-25T02:59:38;16.60;;;4.07;;
12906;SDS011;6521;50.498;8.474;2024-03-25T03:02:10;14.80;;;4.30;;
12906;SDS011;6521;50.498;8.474;2024-03-25T03:04:41;19.23;;;4.73;;
12906;SDS011;6521;50.498;8.474;2024-03-25T03:07:15;20.47;;;4.33;;
12906;SDS011;6521;50.498;8.474;2024-03-25T03:09:48;16.93;;;4.50;;
12906;SDS011;6521;50.498;8.474;2024-03-25T03:12:21;8.80;;;3.87;;
12906;SDS011;6521;50.498;8.474;2024-03-25T03:14:53;18.37;;;4.30;;
12906;SDS011;6521;50.498;8.474;2024-03-25T03:17:24;17.53;;;4.13;;
12906;SDS011;6521;50.498;8.474;2024-03-25T03:19:56;13.57;;;4.00;;
12906;SDS011;6521;50.498;8.474;2024-03-25T03:22:27;10.50;;;3.60;;
12906;SDS011;6521;50.498;8.474;2024-03-25T03:24:58;20.37;;;4.57;;
12906;SDS011;6521;50.498;8.474;2024-03-25T03:27:29;11.70;;;4.93;;
12906;SDS011;6521;50.498;8.474;2024-03-25T03:30:01;21.30;;;4.00;;
12906;SDS011;6521;50.498;8.474;2024-03-25T03:32:32;13.17;;;3.90;;
12906;SDS011;6521;50.498;8.474;2024-03-25T03:35:03;13.03;;;4.17;;
12906;SDS011;6521;50.498;8.474;2024-03-25T03:37:35;12.00;;;4.10;;
12906;SDS011;6521;50.498;8.474;2024-03-25T03:40:08;12.53;;;3.93;;
12906;SDS011;6521;50.498;8.474;2024-03-25T03:42:41;16.33;;;3.77;;
12906;SDS011;6521;50.498;8.474;2024-03-25T03:45:15;12.43;;;3.50;;
12906;SDS011;6521;50.498;8.474;2024-03-25T03:47:45;16.20;;;4.30;;
12906;SDS011;6521;50.498;8.474;2024-03-25T03:50:16;9.27;;;3.37;;
12906;SDS011;6521;50.498;8.474;2024-03-25T03:52:49;14.23;;;4.03;;
12906;SDS011;6521;50.498;8.474;2024-03-25T03:55:20;15.83;;;3.63;;
12906;SDS011;6521;50.498;8.474;2024-03-25T03:57:51;15.20;;;3.87;;
12906;SDS011;6521;50.498;8.474;2024-03-25T04:00:22;10.13;;;3.67;;
12906;SDS011;6521;50.498;8.474;2024-03-25T04:02:54;15.83;;;4.27;;
12906;SDS011;6521;50.498;8.474;2024-03-25T04:05:28;11.20;;;3.70;;
12906;SDS011;6521;50.498;8.474;2024-03-25T04:08:00;14.03;;;3.53;;
12906;SDS011;6521;50.498;8.474;2024-03-25T04:10:36;15.60;;;4.73;;
12906;SDS011;6521;50.498;8.474;2024-03-25T04:13:08;14.43;;;3.83;;
12906;SDS011;6521;50.498;8.474;2024-03-25T04:15:40;15.47;;;3.20;;
12906;SDS011;6521;50.498;8.474;2024-03-25T04:18:14;16.70;;;4.70;;
12906;SDS011;6521;50.498;8.474;2024-03-25T04:20:46;17.40;;;4.67;;
12906;SDS011;6521;50.498;8.474;2024-03-25T04:23:17;14.60;;;4.37;;
12906;SDS011;6521;50.498;8.474;2024-03-25T04:25:50;13.40;;;3.97;;
12906;SDS011;6521;50.498;8.474;2024-03-25T04:28:21;16.63;;;4.40;;
12906;SDS011;6521;50.498;8.474;2024-03-25T04:30:54;11.53;;;4.03;;
12906;SDS011;6521;50.498;8.474;2024-03-25T04:33:26;19.60;;;4.47;;
12906;SDS011;6521;50.498;8.474;2024-03-25T04:35:58;16.10;;;4.80;;
12906;SDS011;6521;50.498;8.474;2024-03-25T04:38:30;15.20;;;4.37;;
12906;SDS011;6521;50.498;8.474;2024-03-25T04:41:01;17.90;;;4.60;;
12906;SDS011;6521;50.498;8.474;2024-03-25T04:43:34;15.73;;;3.97;;
12906;SDS011;6521;50.498;8.474;2024-03-25T04:46:06;15.77;;;3.40;;
12906;SDS011;6521;50.498;8.474;2024-03-25T04:48:38;14.23;;;4.67;;
12906;SDS011;6521;50.498;8.474;2024-03-25T04:51:14;19.70;;;4.63;;
12906;SDS011;6521;50.498;8.474;2024-03-25T04:53:47;21.47;;;4.47;;
12906;SDS011;6521;50.498;8.474;2024-03-25T04:56:18;17.33;;;4.60;;
12906;SDS011;6521;50.498;8.474;2024-03-25T04:58:50;17.37;;;4.37;;
12906;SDS011;6521;50.498;8.474;2024-03-25T05:01:23;14.43;;;3.67;;
12906;SDS011;6521;50.498;8.474;2024-03-25T05:03:57;14.50;;;4.23;;
12906;SDS011;6521;50.498;8.474;2024-03-25T05:06:30;13.87;;;4.00;;
12906;SDS011;6521;50.498;8.474;2024-03-25T05:09:03;18.47;;;4.30;;
12906;SDS011;6521;50.498;8.474;2024-03-25T05:11:34;15.17;;;4.33;;
12906;SDS011;6521;50.498;8.474;2024-03-25T05:14:05;14.93;;;4.37;;
12906;SDS011;6521;50.498;8.474;2024-03-25T05:16:45;19.87;;;4.40;;
12906;SDS011;6521;50.498;8.474;2024-03-25T05:19:16;15.67;;;4.33;;
12906;SDS011;6521;50.498;8.474;2024-03-25T05:21:47;17.07;;;4.60;;
12906;SDS011;6521;50.498;8.474;2024-03-25T05:24:19;20.17;;;4.80;;
12906;SDS011;6521;50.498;8.474;2024-03-25T05:26:50;17.93;;;3.83;;
12906;SDS011;6521;50.498;8.474;2024-03-25T05:29:21;12.93;;;3.80;;
12906;SDS011;6521;50.498;8.474;2024-03-25T05:31:57;19.27;;;4.63;;
12906;SDS011;6521;50.498;8.474;2024-03-25T05:34:30;9.33;;;4.03;;
12906;SDS011;6521;50.498;8.474;2024-03-25T05:37:03;11.17;;;3.63;;
12906;SDS011;6521;50.498;8.474;2024-03-25T05:39:34;17.57;;;4.33;;
12906;SDS011;6521;50.498;8.474;2024-03-25T05:42:06;19.53;;;4.70;;
12906;SDS011;6521;50.498;8.474;2024-03-25T05:44:44;16.30;;;4.23;;
12906;SDS011;6521;50.498;8.474;2024-03-25T05:47:19;17.87;;;4.83;;
12906;SDS011;6521;50.498;8.474;2024-03-25T05:49:50;16.53;;;5.00;;
12906;SDS011;6521;50.498;8.474;2024-03-25T05:52:21;11.70;;;4.50;;
12906;SDS011;6521;50.498;8.474;2024-03-25T05:54:53;12.37;;;4.17;;
12906;SDS011;6521;50.498;8.474;2024-03-25T05:57:24;11.03;;;3.93;;
12906;SDS011;6521;50.498;8.474;2024-03-25T05:59:55;15.43;;;4.20;;
12906;SDS011;6521;50.498;8.474;2024-03-25T06:02:26;16.87;;;4.53;;
12906;SDS011;6521;50.498;8.474;2024-03-25T06:05:02;16.00;;;4.33;;
12906;SDS011;6521;50.498;8.474;2024-03-25T06:07:36;18.43;;;4.13;;
12906;SDS011;6521;50.498;8.474;2024-03-25T06:10:08;14.73;;;4.40;;
12906;SDS011;6521;50.498;8.474;2024-03-25T06:12:39;17.50;;;5.90;;
12906;SDS011;6521;50.498;8.474;2024-03-25T06:15:12;12.47;;;4.97;;
12906;SDS011;6521;50.498;8.474;2024-03-25T06:17:46;10.93;;;3.90;;
12906;SDS011;6521;50.498;8.474;2024-03-25T06:20:18;11.37;;;3.33;;
12906;SDS011;6521;50.498;8.474;2024-03-25T06:22:54;12.50;;;3.70;;
12906;SDS011;6521;50.498;8.474;2024-03-25T06:25:24;13.27;;;4.07;;
12906;SDS011;6521;50.498;8.474;2024-03-25T06:28:08;11.97;;;3.60;;
12906;SDS011;6521;50.498;8.474;2024-03-25T06:30:46;23.23;;;4.40;;
12906;SDS011;6521;50.498;8.474;2024-03-25T06:33:36;11.83;;;3.80;;
12906;SDS011;6521;50.498;8.474;2024-03-25T06:36:27;21.90;;;4.10;;
12906;SDS011;6521;50.498;8.474;2024-03-25T06:39:01;15.13;;;4.60;;
12906;SDS011;6521;50.498;8.474;2024-03-25T06:41:33;11.87;;;3.77;;
12906;SDS011;6521;50.498;8.474;2024-03-25T06:44:06;13.23;;;3.60;;
12906;SDS011;6521;50.498;8.474;2024-03-25T06:46:37;18.53;;;4.30;;
12906;SDS011;6521;50.498;8.474;2024-03-25T06:49:09;16.23;;;3.63;;
12906;SDS011;6521;50.498;8.474;2024-03-25T06:51:43;20.73;;;4.23;;
12906;SDS011;6521;50.498;8.474;2024-03-25T06:54:14;13.23;;;4.20;;
12906;SDS011;6521;50.498;8.474;2024-03-25T06:56:48;13.80;;;4.17;;
12906;SDS011;6521;50.498;8.474;2024-03-25T06:59:22;20.30;;;4.53;;
12906;SDS011;6521;50.498;8.474;2024-03-25T07:01:53;13.00;;;4.03;;
12906;SDS011;6521;50.498;8.474;2024-03-25T07:04:25;16.30;;;5.07;;
12906;SDS011;6521;50.498;8.474;2024-03-25T07:06:58;15.87;;;4.73;;
12906;SDS011;6521;50.498;8.474;2024-03-25T07:09:29;13.20;;;3.60;;
12906;SDS011;6521;50.498;8.474;2024-03-25T07:12:02;14.73;;;4.00;;
12906;SDS011;6521;50.498;8.474;2024-03-25T07:14:34;21.30;;;5.77;;
12906;SDS011;6521;50.498;8.474;2024-03-25T07:17:08;10.77;;;4.17;;
12906;SDS011;6521;50.498;8.474;2024-03-25T07:19:41;12.63;;;4.23;;
12906;SDS011;6521;50.498;8.474;2024-03-25T07:22:14;16.40;;;4.97;;
12906;SDS011;6521;50.498;8.474;2024-03-25T07:24:45;14.53;;;4.30;;
12906;SDS011;6521;50.498;8.474;2024-03-25T07:27:17;14.10;;;3.70;;
12906;SDS011;6521;50.498;8.474;2024-03-25T07:29:47;17.17;;;3.90;;
12906;SDS011;6521;50.498;8.474;2024-03-25T07:32:19;16.20;;;4.07;;
12906;SDS011;6521;50.498;8.474;2024-03-25T07:34:50;15.57;;;4.23;;
12906;SDS011;6521;50.498;8.474;2024-03-25T07:37:26;15.73;;;4.13;;
12906;SDS011;6521;50.498;8.474;2024-03-25T07:39:56;11.47;;;4.17;;
12906;SDS011;6521;50.498;8.474;2024-03-25T07:42:28;16.47;;;4.37;;
12906;SDS011;6521;50.498;8.474;2024-03-25T07:45:03;11.63;;;4.77;;
12906;SDS011;6521;50.498;8.474;2024-03-25T07:47:38;9.50;;;3.83;;
12906;SDS011;6521;50.498;8.474;2024-03-25T07:50:10;18.23;;;4.67;;
12906;SDS011;6521;50.498;8.474;2024-03-25T07:52:43;16.73;;;4.73;;
12906;SDS011;6521;50.498;8.474;2024-03-25T07:55:14;16.23;;;5.23;;
12906;SDS011;6521;50.498;8.474;2024-03-25T07:57:46;18.73;;;5.10;;
12906;SDS011;6521;50.498;8.474;2024-03-25T08:00:17;22.53;;;5.33;;
12906;SDS011;6521;50.498;8.474;2024-03-25T08:02:50;14.53;;;4.93;;
12906;SDS011;6521;50.498;8.474;2024-03-25T08:05:26;11.50;;;4.77;;
12906;SDS011;6521;50.498;8.474;2024-03-25T08:08:02;12.13;;;4.07;;
12906;SDS011;6521;50.498;8.474;2024-03-25T08:10:33;16.93;;;3.43;;
12906;SDS011;6521;50.498;8.474;2024-03-25T08:13:04;12.37;;;3.77;;
12906;SDS011;6521;50.498;8.474;2024-03-25T08:15:36;22.63;;;4.37;;
12906;SDS011;6521;50.498;8.474;2024-03-25T08:18:12;14.63;;;4.03;;
12906;SDS011;6521;50.498;8.474;2024-03-25T08:20:45;15.03;;;3.80;;
12906;SDS011;6521;50.498;8.474;2024-03-25T08:23:18;15.00;;;3.37;;
12906;SDS011;6521;50.498;8.474;2024-03-25T08:25:53;12.40;;;3.00;;
12906;SDS011;6521;50.498;8.474;2024-03-25T08:28:25;14.30;;;3.90;;
12906;SDS011;6521;50.498;8.474;2024-03-25T08:31:02;8.90;;;2.97;;
12906;SDS011;6521;50.498;8.474;2024-03-25T08:33:33;16.57;;;3.47;;
12906;SDS011;6521;50.498;8.474;2024-03-25T08:36:05;13.10;;;3.27;;
12906;SDS011;6521;50.498;8.474;2024-03-25T08:38:37;11.07;;;3.70;;
12906;SDS011;6521;50.498;8.474;2024-03-25T08:41:12;15.13;;;4.87;;
12906;SDS011;6521;50.498;8.474;2024-03-25T08:43:43;14.50;;;3.97;;
12906;SDS011;6521;50.498;8.474;2024-03-25T08:46:14;16.67;;;3.30;;
12906;SDS011;6521;50.498;8.474;2024-03-25T08:48:45;10.73;;;3.80;;
12906;SDS011;6521;50.498;8.474;2024-03-25T08:51:16;8.37;;;2.97;;
12906;SDS011;6521;50.498;8.474;2024-03-25T08:53:53;7.63;;;2.80;;
12906;SDS011;6521;50.498;8.474;2024-03-25T08:56:25;8.73;;;2.53;;
12906;SDS011;6521;50.498;8.474;2024-03-25T08:58:56;14.47;;;3.33;;
12906;SDS011;6521;50.498;8.474;2024-03-25T09:01:28;11.80;;;2.90;;
12906;SDS011;6521;50.498;8.474;2024-03-25T09:04:01;10.40;;;2.97;;
12906;SDS011;6521;50.498;8.474;2024-03-25T09:06:34;7.90;;;2.60;;
12906;SDS011;6521;50.498;8.474;2024-03-25T09:09:07;16.97;;;3.07;;
12906;SDS011;6521;50.498;8.474;2024-03-25T09:12:00;13.77;;;2.60;;
12906;SDS011;6521;50.498;8.474;2024-03-25T09:14:34;11.20;;;2.90;;
12906;SDS011;6521;50.498;8.474;2024-03-25T09:17:09;4.90;;;2.67;;
12906;SDS011;6521;50.498;8.474;2024-03-25T09:19:40;5.77;;;2.37;;
12906;SDS011;6521;50.498;8.474;2024-03-25T09:22:11;18.33;;;3.30;;
12906;SDS011;6521;50.498;8.474;2024-03-25T09:24:43;9.10;;;3.00;;
12906;SDS011;6521;50.498;8.474;2024-03-25T09:27:17;13.63;;;3.43;;
12906;SDS011;6521;50.498;8.474;2024-03-25T09:29:48;9.60;;;3.00;;
12906;SDS011;6521;50.498;8.474;2024-03-25T09:32:28;8.40;;;3.13;;
12906;SDS011;6521;50.498;8.474;2024-03-25T09:35:11;11.60;;;2.93;;
12906;SDS011;6521;50.498;8.474;2024-03-25T09:37:43;10.97;;;3.07;;
12906;SDS011;6521;50.498;8.474;2024-03-25T09:40:14;7.00;;;2.20;;
12906;SDS011;6521;50.498;8.474;2024-03-25T09:42:52;14.20;;;3.43;;
12906;SDS011;6521;50.498;8.474;2024-03-25T09:45:34;6.87;;;2.13;;
12906;SDS011;6521;50.498;8.474;2024-03-25T09:48:10;8.73;;;2.40;;
12906;SDS011;6521;50.498;8.474;2024-03-25T09:50:44;13.83;;;2.57;;
12906;SDS011;6521;50.498;8.474;2024-03-25T09:53:16;12.40;;;3.43;;
12906;SDS011;6521;50.498;8.474;2024-03-25T09:55:47;7.40;;;2.53;;
12906;SDS011;6521;50.498;8.474;2024-03-25T09:58:19;15.53;;;2.90;;
12906;SDS011;6521;50.498;8.474;2024-03-25T10:00:53;6.30;;;2.53;;
12906;SDS011;6521;50.498;8.474;2024-03-25T10:03:29;8.20;;;2.57;;
12906;SDS011;6521;50.498;8.474;2024-03-25T10:06:00;12.40;;;2.73;;
12906;SDS011;6521;50.498;8.474;2024-03-25T10:08:30;8.03;;;2.33;;
12906;SDS011;6521;50.498;8.474;2024-03-25T10:11:04;11.87;;;3.07;;
12906;SDS011;6521;50.498;8.474;2024-03-25T10:13:40;11.73;;;3.28;;
12906;SDS011;6521;50.498;8.474;2024-03-25T10:16:13;9.70;;;2.80;;
12906;SDS011;6521;50.498;8.474;2024-03-25T10:18:44;8.13;;;2.40;;
12906;SDS011;6521;50.498;8.474;2024-03-25T10:21:21;7.70;;;2.45;;
12906;SDS011;6521;50.498;8.474;2024-03-25T10:23:55;7.72;;;2.25;;
12906;SDS011;6521;50.498;8.474;2024-03-25T10:26:30;7.40;;;2.38;;
12906;SDS011;6521;50.498;8.474;2024-03-25T10:29:02;6.82;;;2.33;;
12906;SDS011;6521;50.498;8.474;2024-03-25T10:31:39;8.30;;;2.38;;
12906;SDS011;6521;50.498;8.474;2024-03-25T10:34:12;6.93;;;2.55;;
12906;SDS011;6521;50.498;8.474;2024-03-25T10:36:47;7.03;;;2.50;;
12906;SDS011;6521;50.498;8.474;2024-03-25T10:39:21;8.17;;;2.27;;
12906;SDS011;6521;50.498;8.474;2024-03-25T10:41:56;4.53;;;1.90;;
12906;SDS011;6521;50.498;8.474;2024-03-25T10:44:33;10.93;;;2.50;;
12906;SDS011;6521;50.498;8.474;2024-03-25T10:47:05;4.70;;;1.90;;
12906;SDS011;6521;50.498;8.474;2024-03-25T10:49:46;7.30;;;2.00;;
12906;SDS011;6521;50.498;8.474;2024-03-25T10:52:20;8.03;;;2.17;;
12906;SDS011;6521;50.498;8.474;2024-03-25T10:54:52;6.90;;;2.03;;
12906;SDS011;6521;50.498;8.474;2024-03-25T10:57:26;6.75;;;2.05;;
12906;SDS011;6521;50.498;8.474;2024-03-25T10:59:59;8.82;;;2.22;;
12906;SDS011;6521;50.498;8.474;2024-03-25T11:02:32;6.97;;;2.20;;
12906;SDS011;6521;50.498;8.474;2024-03-25T11:05:05;9.52;;;2.35;;
12906;SDS011;6521;50.498;8.474;2024-03-25T11:07:36;7.28;;;1.80;;
12906;SDS011;6521;50.498;8.474;2024-03-25T11:10:09;5.30;;;2.10;;
12906;SDS011;6521;50.498;8.474;2024-03-25T11:12:43;4.35;;;1.60;;
12906;SDS011;6521;50.498;8.474;2024-03-25T11:15:14;5.22;;;1.95;;
12906;SDS011;6521;50.498;8.474;2024-03-25T11:17:49;6.00;;;1.63;;
12906;SDS011;6521;50.498;8.474;2024-03-25T11:20:20;9.90;;;2.20;;
12906;SDS011;6521;50.498;8.474;2024-03-25T11:22:52;6.35;;;2.05;;
12906;SDS011;6521;50.498;8.474;2024-03-25T11:25:23;5.60;;;2.13;;
12906;SDS011;6521;50.498;8.474;2024-03-25T11:27:54;6.57;;;1.63;;
12906;SDS011;6521;50.498;8.474;2024-03-25T11:30:25;6.20;;;1.80;;
12906;SDS011;6521;50.498;8.474;2024-03-25T11:32:57;6.38;;;2.22;;
12906;SDS011;6521;50.498;8.474;2024-03-25T11:35:36;7.55;;;2.05;;
12906;SDS011;6521;50.498;8.474;2024-03-25T11:38:10;5.63;;;1.65;;
12906;SDS011;6521;50.498;8.474;2024-03-25T11:40:50;9.02;;;1.58;;
12906;SDS011;6521;50.498;8.474;2024-03-25T11:43:22;5.97;;;1.45;;
12906;SDS011;6521;50.498;8.474;2024-03-25T11:45:57;6.22;;;1.90;;
12906;SDS011;6521;50.498;8.474;2024-03-25T11:48:30;4.80;;;1.77;;
12906;SDS011;6521;50.498;8.474;2024-03-25T11:51:01;7.15;;;1.95;;
12906;SDS011;6521;50.498;8.474;2024-03-25T11:53:36;6.85;;;1.80;;
12906;SDS011;6521;50.498;8.474;2024-03-25T11:56:07;5.82;;;1.88;;
12906;SDS011;6521;50.498;8.474;2024-03-25T11:58:42;5.38;;;1.80;;
12906;SDS011;6521;50.498;8.474;2024-03-25T12:01:19;5.75;;;2.70;;
12906;SDS011;6521;50.498;8.474;2024-03-25T12:03:49;7.47;;;2.42;;
12906;SDS011;6521;50.498;8.474;2024-03-25T12:06:21;8.77;;;1.92;;
12906;SDS011;6521;50.498;8.474;2024-03-25T12:08:53;3.97;;;2.00;;
12906;SDS011;6521;50.498;8.474;2024-03-25T12:11:44;5.72;;;2.08;;
12906;SDS011;6521;50.498;8.474;2024-03-25T12:14:19;4.38;;;1.65;;
12906;SDS011;6521;50.498;8.474;2024-03-25T12:16:50;7.82;;;1.98;;
12906;SDS011;6521;50.498;8.474;2024-03-25T12:19:24;5.93;;;1.92;;
12906;SDS011;6521;50.498;8.474;2024-03-25T12:22:00;5.18;;;1.65;;
12906;SDS011;6521;50.498;8.474;2024-03-25T12:24:31;6.10;;;1.40;;
12906;SDS011;6521;50.498;8.474;2024-03-25T12:27:02;6.78;;;2.08;;
12906;SDS011;6521;50.498;8.474;2024-03-25T12:29:33;4.70;;;1.80;;
12906;SDS011;6521;50.498;8.474;2024-03-25T12:32:04;4.97;;;1.80;;
12906;SDS011;6521;50.498;8.474;2024-03-25T12:34:37;5.65;;;1.98;;
12906;SDS011;6521;50.498;8.474;2024-03-25T12:37:08;5.57;;;1.52;;
12906;SDS011;6521;50.498;8.474;2024-03-25T12:39:49;5.70;;;2.13;;
12906;SDS011;6521;50.498;8.474;2024-03-25T12:42:21;5.40;;;1.73;;
12906;SDS011;6521;50.498;8.474;2024-03-25T12:44:51;4.78;;;1.60;;
12906;SDS011;6521;50.498;8.474;2024-03-25T12:47:22;6.32;;;1.83;;
12906;SDS011;6521;50.498;8.474;2024-03-25T12:49:56;3.08;;;1.85;;
12906;SDS011;6521;50.498;8.474;2024-03-25T12:52:27;7.63;;;2.25;;
12906;SDS011;6521;50.498;8.474;2024-03-25T12:54:58;5.15;;;1.70;;
12906;SDS011;6521;50.498;8.474;2024-03-25T12:57:32;4.93;;;1.55;;
12906;SDS011;6521;50.498;8.474;2024-03-25T13:00:03;2.00;;;1.45;;
12906;SDS011;6521;50.498;8.474;2024-03-25T13:02:38;5.63;;;1.60;;
12906;SDS011;6521;50.498;8.474;2024-03-25T13:05:11;6.97;;;1.92;;
12906;SDS011;6521;50.498;8.474;2024-03-25T13:07:47;6.57;;;1.88;;
12906;SDS011;6521;50.498;8.474;2024-03-25T13:10:18;5.47;;;1.70;;
12906;SDS011;6521;50.498;8.474;2024-03-25T13:12:52;2.72;;;1.42;;
12906;SDS011;6521;50.498;8.474;2024-03-25T13:15:23;7.10;;;1.48;;
12906;SDS011;6521;50.498;8.474;2024-03-25T13:17:54;3.88;;;1.20;;
12906;SDS011;6521;50.498;8.474;2024-03-25T13:20:26;2.85;;;1.50;;
12906;SDS011;6521;50.498;8.474;2024-03-25T13:22:56;3.58;;;1.50;;
12906;SDS011;6521;50.498;8.474;2024-03-25T13:25:29;5.60;;;1.70;;
12906;SDS011;6521;50.498;8.474;2024-03-25T13:28:00;4.78;;;1.77;;
12906;SDS011;6521;50.498;8.474;2024-03-25T13:30:31;5.00;;;1.73;;
12906;SDS011;6521;50.498;8.474;2024-03-25T13:33:02;8.63;;;1.50;;
12906;SDS011;6521;50.498;8.474;2024-03-25T13:35:36;4.90;;;1.20;;
12906;SDS011;6521;50.498;8.474;2024-03-25T13:38:08;3.53;;;1.60;;
12906;SDS011;6521;50.498;8.474;2024-03-25T13:40:41;5.65;;;1.90;;
12906;SDS011;6521;50.498;8.474;2024-03-25T13:43:12;11.52;;;2.03;;
12906;SDS011;6521;50.498;8.474;2024-03-25T13:45:48;6.55;;;1.92;;
12906;SDS011;6521;50.498;8.474;2024-03-25T13:48:19;5.28;;;1.40;;
12906;SDS011;6521;50.498;8.474;2024-03-25T13:50:53;4.68;;;1.48;;
12906;SDS011;6521;50.498;8.474;2024-03-25T13:53:24;3.22;;;1.27;;
12906;SDS011;6521;50.498;8.474;2024-03-25T13:55:57;4.80;;;1.90;;
12906;SDS011;6521;50.498;8.474;2024-03-25T13:58:28;4.28;;;1.70;;
12906;SDS011;6521;50.498;8.474;2024-03-25T14:00:59;4.78;;;1.55;;
12906;SDS011;6521;50.498;8.474;2024-03-25T14:03:32;4.05;;;1.60;;
12906;SDS011;6521;50.498;8.474;2024-03-25T14:06:03;4.05;;;1.42;;
12906;SDS011;6521;50.498;8.474;2024-03-25T14:08:37;5.25;;;1.80;;
12906;SDS011;6521;50.498;8.474;2024-03-25T14:11:08;5.35;;;1.95;;
12906;SDS011;6521;50.498;8.474;2024-03-25T14:13:42;2.67;;;1.27;;
12906;SDS011;6521;50.498;8.474;2024-03-25T14:16:13;4.65;;;1.50;;
12906;SDS011;6521;50.498;8.474;2024-03-25T14:18:44;3.20;;;1.60;;
12906;SDS011;6521;50.498;8.474;2024-03-25T14:21:15;3.30;;;1.30;;
12906;SDS011;6521;50.498;8.474;2024-03-25T14:23:46;3.63;;;1.52;;
12906;SDS011;6521;50.498;8.474;2024-03-25T14:26:18;2.78;;;1.42;;
12906;SDS011;6521;50.498;8.474;2024-03-25T14:28:49;4.63;;;1.60;;
12906;SDS011;6521;50.498;8.474;2024-03-25T14:31:19;3.78;;;1.20;;
12906;SDS011;6521;50.498;8.474;2024-03-25T14:33:53;3.40;;;1.60;;
12906;SDS011;6521;50.498;8.474;2024-03-25T14:36:24;2.80;;;1.20;;
12906;SDS011;6521;50.498;8.474;2024-03-25T14:38:55;5.75;;;1.80;;
12906;SDS011;6521;50.498;8.474;2024-03-25T14:41:27;9.75;;;1.90;;
12906;SDS011;6521;50.498;8.474;2024-03-25T14:44:10;4.40;;;1.70;;
12906;SDS011;6521;50.498;8.474;2024-03-25T14:46:45;10.38;;;1.85;;
12906;SDS011;6521;50.498;8.474;2024-03-25T14:49:15;4.03;;;1.52;;
12906;SDS011;6521;50.498;8.474;2024-03-25T14:51:47;6.50;;;2.30;;
12906;SDS011;6521;50.498;8.474;2024-03-25T14:54:18;4.63;;;2.10;;
12906;SDS011;6521;50.498;8.474;2024-03-25T14:56:53;7.57;;;1.90;;
12906;SDS011;6521;50.498;8.474;2024-03-25T14:59:24;5.13;;;2.03;;
12906;SDS011;6521;50.498;8.474;2024-03-25T15:02:00;7.13;;;1.88;;
12906;SDS011;6521;50.498;8.474;2024-03-25T15:04:34;6.43;;;2.00;;
12906;SDS011;6521;50.498;8.474;2024-03-25T15:07:05;4.05;;;1.73;;
12906;SDS011;6521;50.498;8.474;2024-03-25T15:09:37;5.07;;;1.77;;
12906;SDS011;6521;50.498;8.474;2024-03-25T15:12:11;4.97;;;1.73;;
12906;SDS011;6521;50.498;8.474;2024-03-25T15:14:42;6.60;;;2.20;;
12906;SDS011;6521;50.498;8.474;2024-03-25T15:17:13;3.53;;;1.67;;
12906;SDS011;6521;50.498;8.474;2024-03-25T15:19:44;3.13;;;1.67;;
12906;SDS011;6521;50.498;8.474;2024-03-25T15:22:16;4.30;;;1.90;;
12906;SDS011;6521;50.498;8.474;2024-03-25T15:24:47;7.50;;;2.10;;
12906;SDS011;6521;50.498;8.474;2024-03-25T15:27:19;4.20;;;1.70;;